Time;durP1;ratioP1;P1;durP2;ratioP2;P2;SDS_P1;SDS_P2;PMS_P1;PMS_P2;Temp;Humidity;BMP_temperature;BMP_pressure;BME280_temperature;BME280_humidity;BME280_pressure;Samples;Min_cycle;Max_cycle;Signal;HPM_P1;HPM_P2
2022/05/03 00:02:50;;;;;;;20.60;12.10;;;;;;;12.35;75.71;100713.06;8385050;28;20405;-61
2022/05/03 00:07:09;;;;;;;15.23;10.50;;;;;;;12.29;75.95;100708.25;8368017;28;20108;-61
2022/05/03 00:11:22;;;;;;;21.33;11.68;;;;;;;12.24;76.40;100705.09;8349416;28;20049;-62
2022/05/03 00:15:25;;;;;;;18.47;11.70;;;;;;;12.12;76.85;100709.84;8381894;28;20041;-62
2022/05/03 00:19:27;;;;;;;21.45;12.27;;;;;;;11.90;77.69;100700.16;8384497;28;20048;-61
2022/05/03 00:23:27;;;;;;;22.27;11.80;;;;;;;12.05;77.39;100708.72;8387407;27;20029;-62
2022/05/03 00:27:28;;;;;;;17.60;12.05;;;;;;;12.00;77.69;100704.72;8385059;28;20091;-62
2022/05/03 00:31:30;;;;;;;17.95;11.63;;;;;;;11.82;78.67;100697.34;8384265;28;20136;-62
2022/05/03 00:35:31;;;;;;;20.20;12.50;;;;;;;11.95;77.80;100694.31;8383770;28;20057;-62
2022/05/03 00:39:31;;;;;;;22.33;12.52;;;;;;;11.78;78.68;100689.66;8383998;28;20064;-62
2022/05/03 00:43:53;;;;;;;24.13;13.07;;;;;;;11.87;78.76;100688.78;8383565;28;20512;-62
2022/05/03 00:48:06;;;;;;;19.42;11.85;;;;;;;11.92;78.24;100691.91;8367806;28;20033;-62
2022/05/03 00:52:21;;;;;;;22.52;12.90;;;;;;;11.96;78.00;100687.06;8328177;28;20053;-62
2022/05/03 00:56:47;;;;;;;20.35;13.25;;;;;;;11.93;78.58;100690.06;8359693;28;20069;-62
2022/05/03 01:01:11;;;;;;;21.52;12.05;;;;;;;11.94;78.67;100695.34;8330805;28;20126;-62
2022/05/03 01:05:18;;;;;;;25.85;14.35;;;;;;;11.96;78.29;100692.47;8360133;28;20037;-62
2022/05/03 01:09:34;;;;;;;16.98;11.75;;;;;;;11.96;78.41;100692.47;8361323;28;20029;-62
2022/05/03 01:13:41;;;;;;;26.92;12.82;;;;;;;12.01;78.63;100698.31;8364632;28;20043;-62
2022/05/03 01:17:48;;;;;;;23.85;13.07;;;;;;;11.97;78.72;100694.19;8334419;28;20045;-62
2022/05/03 01:26:53;;;;;;;28.02;13.60;;;;;;;11.83;79.73;100682.78;8397789;27;20400;-63
2022/05/03 01:30:57;;;;;;;29.02;13.90;;;;;;;11.82;79.92;100681.09;8383485;28;20123;-61
2022/05/03 01:34:57;;;;;;;21.70;12.88;;;;;;;11.77;79.90;100691.50;8385359;28;20032;-61
2022/05/03 01:39:10;;;;;;;20.73;13.15;;;;;;;11.64;80.82;100688.25;8382524;28;20112;-62
2022/05/03 01:43:20;;;;;;;25.60;13.60;;;;;;;11.14;83.30;100692.03;8374739;28;20029;-61
2022/05/03 01:52:12;;;;;;;24.45;13.02;;;;;;;10.79;85.76;100693.47;8388072;27;20457;-60
2022/05/03 01:56:40;;;;;;;22.27;12.95;;;;;;;10.81;85.45;100680.69;8382877;28;20037;-61
2022/05/03 02:00:49;;;;;;;22.13;12.63;;;;;;;11.10;83.42;100687.88;8385947;28;20029;-61
2022/05/03 02:05:03;;;;;;;19.73;12.73;;;;;;;10.92;84.43;100678.72;8385025;28;20033;-62
2022/05/03 02:09:05;;;;;;;17.48;12.43;;;;;;;10.76;84.98;100681.09;8385128;28;20044;-61
2022/05/03 02:14:44;;;;;;;24.45;12.73;;;;;;;10.84;84.42;100686.69;8383880;28;20029;-61
2022/05/03 02:18:08;;;;;;;22.10;12.95;;;;;;;10.77;84.82;100685.50;8379185;28;20032;-62
2022/05/03 02:22:31;;;;;;;21.02;12.57;;;;;;;10.83;84.30;100676.84;8380137;28;20041;-61
2022/05/03 02:26:43;;;;;;;23.80;12.70;;;;;;;10.93;83.58;100672.34;8381504;28;20056;-61
2022/05/03 02:30:46;;;;;;;21.25;12.90;;;;;;;10.90;83.52;100669.91;8373711;28;20488;-61
2022/05/03 02:34:52;;;;;;;19.20;12.70;;;;;;;10.38;85.95;100689.06;8383877;28;20051;-61
2022/05/03 02:39:02;;;;;;;24.15;14.18;;;;;;;10.19;88.38;100678.19;8383082;28;20052;-62
2022/05/03 02:43:03;;;;;;;23.30;13.20;;;;;;;10.01;89.25;100685.16;8384843;28;20036;-62
2022/05/03 02:47:16;;;;;;;22.80;13.57;;;;;;;9.84;90.18;100677.63;8384953;28;20114;-62
2022/05/03 02:51:21;;;;;;;24.38;13.40;;;;;;;9.79;90.82;100679.88;8383939;28;20123;-62
2022/05/03 02:55:50;;;;;;;27.23;14.20;;;;;;;9.64;91.24;100678.50;8381747;28;20037;-62
2022/05/03 03:04:58;;;;;;;22.90;14.00;;;;;;;9.49;92.12;100682.50;8358431;28;20524;-62
2022/05/03 03:09:00;;;;;;;26.00;13.60;;;;;;;9.46;92.88;100677.34;8361178;28;20128;-62
2022/05/03 03:13:14;;;;;;;26.33;14.82;;;;;;;9.22;93.99;100676.72;8362259;28;20434;-62
2022/05/03 03:17:21;;;;;;;22.52;13.63;;;;;;;9.51;92.93;100685.91;8361945;28;20481;-62
2022/05/03 03:21:27;;;;;;;21.58;13.82;;;;;;;9.67;92.14;100680.94;8361920;28;20543;-62
2022/05/03 03:25:29;;;;;;;25.55;12.70;;;;;;;9.84;90.40;100678.50;8355347;28;20025;-62
2022/05/03 03:29:31;;;;;;;21.25;13.38;;;;;;;10.00;89.29;100675.31;8360227;28;20099;-62
2022/05/03 03:33:34;;;;;;;20.80;13.70;;;;;;;9.96;88.96;100668.47;8361893;28;20496;-62
2022/05/03 03:37:35;;;;;;;22.92;13.52;;;;;;;9.94;88.82;100673.13;8361761;28;20036;-62
2022/05/03 03:41:35;;;;;;;22.20;13.40;;;;;;;9.83;89.31;100681.34;8361235;28;20429;-62
2022/05/03 03:45:36;;;;;;;29.70;13.77;;;;;;;9.35;91.87;100677.41;8359714;28;20072;-62
2022/05/03 03:49:36;;;;;;;23.95;14.85;;;;;;;9.21;93.41;100672.31;8361106;28;20044;-62
2022/05/03 03:53:38;;;;;;;27.08;14.60;;;;;;;9.05;94.53;100682.66;8365426;28;20097;-62
2022/05/03 03:57:39;;;;;;;23.27;14.00;;;;;;;9.08;95.28;100687.78;8406815;28;20040;-62
2022/05/03 04:01:40;;;;;;;19.98;13.32;;;;;;;9.43;92.44;100683.00;8378455;28;20098;-62
2022/05/03 04:05:41;;;;;;;23.85;14.50;;;;;;;9.41;92.00;100685.84;8368173;28;20063;-62
2022/05/03 04:09:42;;;;;;;22.65;13.00;;;;;;;9.46;91.54;100685.47;8360058;28;20501;-62
2022/05/03 04:13:44;;;;;;;19.35;13.20;;;;;;;9.43;91.45;100683.00;8368262;28;20028;-62
2022/05/03 04:17:45;;;;;;;21.90;13.45;;;;;;;9.04;93.90;100689.03;8358699;28;20509;-62
2022/05/03 04:21:46;;;;;;;24.90;14.73;;;;;;;8.89;95.16;100684.91;8356517;28;20428;-62
2022/05/03 04:25:46;;;;;;;24.30;14.18;;;;;;;8.69;96.28;100693.78;8358451;28;20078;-62
2022/05/03 04:29:48;;;;;;;26.65;14.95;;;;;;;8.83;95.99;100691.66;8358455;28;20037;-62
2022/05/03 04:33:48;;;;;;;25.50;14.25;;;;;;;8.81;96.17;100700.88;8354533;28;20041;-62
2022/05/03 04:37:48;;;;;;;29.40;15.55;;;;;;;8.80;96.49;100699.13;8358142;28;20044;-62
2022/05/03 04:41:49;;;;;;;37.22;14.95;;;;;;;8.98;96.21;100703.88;8356210;28;20091;-63
2022/05/03 04:45:51;;;;;;;29.38;15.45;;;;;;;9.29;94.40;100707.59;8357513;28;20492;-63
2022/05/03 04:49:51;;;;;;;25.73;13.38;;;;;;;9.44;92.48;100700.91;8357204;28;20045;-62
2022/05/03 04:53:52;;;;;;;27.40;13.10;;;;;;;9.50;92.58;100713.88;8356798;28;20115;-62
2022/05/03 04:57:53;;;;;;;18.50;12.02;;;;;;;9.55;92.46;100714.38;8357290;28;20041;-62
2022/05/03 05:01:54;;;;;;;21.90;13.18;;;;;;;9.72;90.42;100721.88;8352251;28;20044;-62
2022/05/03 05:05:54;;;;;;;20.70;12.90;;;;;;;9.87;90.30;100720.56;8355336;28;20090;-62
2022/05/03 05:10:27;;;;;;;23.10;13.02;;;;;;;9.88;90.32;100727.69;8357122;28;20149;-63
2022/05/03 05:14:16;;;;;;;21.67;12.88;;;;;;;10.12;89.36;100739.13;8356414;28;20033;-62
2022/05/03 05:18:16;;;;;;;21.70;11.65;;;;;;;10.46;88.79;100735.19;8355299;28;20036;-61
2022/05/03 05:22:17;;;;;;;21.98;11.55;;;;;;;10.30;86.14;100740.22;8355266;28;20033;-62
2022/05/03 05:26:18;;;;;;;23.02;12.27;;;;;;;10.32;86.13;100740.97;8352604;28;20424;-62
2022/05/03 05:30:18;;;;;;;21.35;12.18;;;;;;;10.38;85.72;100743.13;8337681;28;20041;-61
2022/05/03 05:34:19;;;;;;;28.63;12.63;;;;;;;10.47;85.55;100742.31;8338677;28;20525;-62
2022/05/03 05:38:19;;;;;;;20.45;11.23;;;;;;;10.74;85.05;100750.69;8343899;28;20037;-61
2022/05/03 05:42:20;;;;;;;22.60;11.82;;;;;;;10.69;84.17;100747.53;8334012;28;20056;-61
2022/05/03 05:46:20;;;;;;;16.88;11.68;;;;;;;10.76;83.68;100747.84;8337472;28;20086;-61
2022/05/03 05:50:21;;;;;;;26.85;11.20;;;;;;;10.79;83.55;100758.38;8342374;28;20557;-61
2022/05/03 05:54:21;;;;;;;21.83;11.32;;;;;;;10.85;82.64;100753.31;8341182;28;20604;-61
2022/05/03 05:58:21;;;;;;;27.53;11.53;;;;;;;10.94;82.75;100752.47;8348014;28;20457;-61
2022/05/03 06:02:22;;;;;;;25.67;11.55;;;;;;;10.86;82.93;100749.59;8341865;28;20322;-61
2022/05/03 06:06:22;;;;;;;22.25;11.70;;;;;;;10.97;82.49;100757.63;8249019;28;20122;-61
2022/05/03 06:10:23;;;;;;;26.90;11.52;;;;;;;11.32;81.66;100757.97;8336975;28;20557;-61
2022/05/03 06:14:24;;;;;;;22.55;11.07;;;;;;;11.62;80.86;100760.63;8337019;28;20386;-61
2022/05/03 06:18:24;;;;;;;22.55;11.55;;;;;;;11.81;79.17;100759.78;8339459;28;20083;-61
2022/05/03 06:22:25;;;;;;;28.25;11.50;;;;;;;12.19;78.93;100758.88;8341311;28;20051;-61
2022/05/03 06:26:25;;;;;;;16.33;10.37;;;;;;;12.12;77.46;100757.75;8342686;28;20426;-61
2022/05/03 06:30:26;;;;;;;35.13;10.63;;;;;;;12.03;77.49;100755.91;8346208;28;20287;-61
2022/05/03 06:34:26;;;;;;;23.33;11.45;;;;;;;12.13;77.08;100763.03;8338736;28;20044;-61
2022/05/03 06:38:27;;;;;;;20.48;9.95;;;;;;;12.20;76.78;100764.16;8352639;28;20493;-62
2022/05/03 06:42:27;;;;;;;16.73;10.25;;;;;;;12.32;76.11;100771.13;8353520;28;20041;-62
2022/05/03 06:46:28;;;;;;;21.85;10.88;;;;;;;12.50;77.45;100774.81;8350762;28;20036;-61
2022/05/03 06:50:30;;;;;;;19.85;10.35;;;;;;;12.64;75.85;100770.78;8350889;28;20375;-61
2022/05/03 06:54:30;;;;;;;19.23;9.82;;;;;;;12.90;75.13;100771.84;8350571;28;20044;-62
2022/05/03 06:58:31;;;;;;;18.53;10.23;;;;;;;13.04;73.87;100783.09;8351044;28;20048;-62
2022/05/03 07:02:32;;;;;;;20.92;9.70;;;;;;;13.44;74.72;100785.44;8352776;28;20299;-62
2022/05/03 07:06:32;;;;;;;20.55;10.15;;;;;;;13.63;72.92;100790.72;8352440;28;20550;-62
2022/05/03 07:10:33;;;;;;;17.38;9.00;;;;;;;13.55;71.68;100790.66;8352914;28;20448;-62
2022/05/03 07:14:33;;;;;;;16.65;9.60;;;;;;;13.70;71.58;100795.41;8355639;28;20041;-62
2022/05/03 07:22:54;;;;;;;20.50;9.07;;;;;;;14.19;70.89;100796.75;8351961;28;20068;-62
2022/05/03 07:26:55;;;;;;;13.57;9.02;;;;;;;14.26;69.71;100803.28;8355802;28;20356;-62
2022/05/03 07:30:56;;;;;;;12.50;8.80;;;;;;;14.53;69.80;100800.44;8355248;28;20087;-62
2022/05/03 07:34:56;;;;;;;15.73;8.57;;;;;;;14.78;69.55;100796.88;8353986;28;20052;-62
2022/05/03 07:38:56;;;;;;;15.82;8.88;;;;;;;15.01;68.55;100797.19;8353567;28;20080;-61
2022/05/03 07:42:57;;;;;;;20.58;9.10;;;;;;;14.92;66.50;100799.00;8354588;28;20148;-62
2022/05/03 07:46:58;;;;;;;15.80;8.25;;;;;;;14.83;67.39;100794.53;8355278;28;20076;-61
2022/05/03 07:50:58;;;;;;;16.27;9.25;;;;;;;14.50;67.70;100805.34;8354866;28;20103;-62
2022/05/03 07:54:59;;;;;;;17.55;9.30;;;;;;;14.69;67.33;100806.00;8353420;28;20397;-61
2022/05/03 07:58:59;;;;;;;15.55;8.40;;;;;;;15.44;66.29;100797.91;8354688;28;20523;-61
2022/05/03 08:02:59;;;;;;;19.30;8.60;;;;;;;16.03;65.39;100804.19;8355986;28;20041;-64
2022/05/03 08:07:00;;;;;;;12.60;7.93;;;;;;;15.40;65.84;100809.31;8351309;28;21238;-65
2022/05/03 08:11:00;;;;;;;13.45;8.30;;;;;;;15.12;65.84;100811.38;8374945;28;20275;-65
2022/05/03 08:15:02;;;;;;;13.52;8.63;;;;;;;15.23;64.49;100802.91;8384923;28;20127;-64
2022/05/03 08:19:02;;;;;;;12.02;7.85;;;;;;;15.60;64.15;100808.88;8366291;28;20047;-64
2022/05/03 08:23:03;;;;;;;12.13;8.40;;;;;;;15.89;64.27;100808.41;8386669;28;20044;-64
2022/05/03 08:27:04;;;;;;;14.60;7.45;;;;;;;15.96;63.12;100816.78;8387288;28;20511;-64
2022/05/03 08:31:05;;;;;;;12.45;6.28;;;;;;;16.23;60.07;100816.50;8385208;28;20408;-65
2022/05/03 08:35:05;;;;;;;11.35;6.85;;;;;;;16.03;58.16;100817.81;8385419;28;20044;-65
2022/05/03 08:43:26;;;;;;;12.10;6.40;;;;;;;16.13;57.58;100815.81;8381279;28;20097;-65
2022/05/03 08:47:28;;;;;;;12.25;5.95;;;;;;;16.63;56.41;100821.97;8387186;28;20060;-65
2022/05/03 08:51:31;;;;;;;12.07;5.38;;;;;;;16.40;55.79;100812.72;8379970;28;20045;-64
2022/05/03 08:55:31;;;;;;;13.18;5.82;;;;;;;16.54;56.70;100823.00;8386503;28;20048;-65
2022/05/03 08:59:34;;;;;;;6.68;5.22;;;;;;;16.77;56.54;100829.47;8385298;28;20046;-65
2022/05/03 09:03:37;;;;;;;10.38;5.57;;;;;;;16.95;55.97;100833.69;8385692;28;20465;-65
2022/05/03 09:07:38;;;;;;;13.45;5.85;;;;;;;16.63;55.38;100825.56;8384315;28;20058;-65
2022/05/03 09:11:45;;;;;;;8.95;5.68;;;;;;;16.86;55.04;100832.00;8383612;28;20041;-65
2022/05/03 09:15:47;;;;;;;12.32;6.13;;;;;;;17.08;54.87;100824.97;8385521;28;20042;-65
2022/05/03 09:19:47;;;;;;;10.95;5.07;;;;;;;17.35;54.76;100833.59;8384851;28;20526;-65
2022/05/03 09:24:03;;;;;;;10.47;5.90;;;;;;;17.32;55.29;100827.63;8384926;28;20408;-65
2022/05/03 09:28:06;;;;;;;9.52;6.47;;;;;;;17.41;54.92;100837.50;8385321;28;20266;-65
2022/05/03 09:32:06;;;;;;;11.20;5.65;;;;;;;17.41;55.01;100829.28;8383906;28;20056;-65
2022/05/03 09:36:10;;;;;;;7.72;5.50;;;;;;;17.80;53.92;100838.38;8383265;28;20508;-65
2022/05/03 09:40:12;;;;;;;11.10;5.50;;;;;;;18.14;52.58;100830.63;8384648;28;20105;-65
2022/05/03 09:44:13;;;;;;;9.95;4.93;;;;;;;18.50;51.21;100831.78;8376513;28;20028;-65
2022/05/03 09:48:13;;;;;;;8.32;5.25;;;;;;;19.24;49.78;100826.22;8383253;28;20044;-65
2022/05/03 09:52:36;;;;;;;13.65;5.68;;;;;;;20.32;48.28;100821.72;8383463;28;20033;-65
2022/05/03 09:56:40;;;;;;;9.55;5.25;;;;;;;21.00;47.68;100810.91;8378522;28;20048;-65
2022/05/03 10:00:43;;;;;;;8.40;4.50;;;;;;;21.34;46.68;100813.69;8377996;28;20028;-65
2022/05/03 10:04:45;;;;;;;9.82;5.03;;;;;;;21.29;46.45;100816.22;8383325;28;20493;-65
2022/05/03 10:08:48;;;;;;;10.15;5.70;;;;;;;21.83;44.90;100814.38;8384334;28;20452;-65
2022/05/03 10:12:50;;;;;;;9.67;5.13;;;;;;;21.87;45.02;100812.94;8390327;28;20041;-65
2022/05/03 10:21:15;;;;;;;10.57;5.03;;;;;;;22.33;44.72;100805.63;8389731;28;20044;-65
2022/05/03 10:25:46;;;;;;;11.65;5.32;;;;;;;23.03;43.46;100808.63;8373485;28;20086;-65
2022/05/03 10:30:23;;;;;;;8.02;5.38;;;;;;;22.25;44.63;100803.06;8381781;28;20059;-65
2022/05/03 10:39:18;;;;;;;12.15;6.18;;;;;;;21.92;45.44;100802.13;8403707;27;20403;-64
2022/05/03 10:43:26;;;;;;;11.50;6.50;;;;;;;22.97;44.00;100803.13;8379750;28;20044;-65
2022/05/03 10:47:53;;;;;;;8.95;6.22;;;;;;;22.42;44.82;100807.09;8378812;28;20467;-65
2022/05/03 10:51:53;;;;;;;13.40;7.70;;;;;;;22.77;44.28;100797.63;8374245;28;20037;-65
2022/05/03 10:56:16;;;;;;;11.30;7.17;;;;;;;22.78;44.41;100793.78;8361365;28;20445;-65
2022/05/03 11:00:17;;;;;;;18.40;5.77;;;;;;;23.97;42.87;100789.69;8346627;28;20267;-65
2022/05/03 11:04:17;;;;;;;13.05;6.90;;;;;;;23.00;42.91;100775.94;8344896;28;20048;-65
2022/05/03 11:08:18;;;;;;;13.18;7.03;;;;;;;23.44;43.23;100777.13;8346184;28;20040;-65
2022/05/03 11:12:18;;;;;;;14.93;7.38;;;;;;;23.11;43.11;100778.06;8342391;28;20064;-65
2022/05/03 11:16:26;;;;;;;9.80;6.33;;;;;;;23.06;42.69;100775.09;8344457;28;20041;-65
2022/05/03 11:20:27;;;;;;;11.77;6.93;;;;;;;23.64;42.96;100772.41;8341991;28;20302;-65
2022/05/03 11:24:29;;;;;;;11.20;6.72;;;;;;;23.45;42.23;100773.34;8341511;28;20037;-65
2022/05/03 11:28:30;;;;;;;10.98;6.55;;;;;;;23.49;41.68;100769.91;8342947;28;20045;-64
2022/05/03 11:32:38;;;;;;;9.57;6.20;;;;;;;23.54;41.73;100772.03;8340233;28;20048;-64
2022/05/03 11:36:41;;;;;;;11.10;6.53;;;;;;;23.39;42.02;100765.91;8340486;28;20049;-64
2022/05/03 11:40:42;;;;;;;14.25;6.80;;;;;;;24.54;41.07;100764.63;8340049;28;20183;-64
2022/05/03 11:44:43;;;;;;;8.55;6.70;;;;;;;24.45;40.25;100752.16;8321635;28;20045;-64
2022/05/03 11:48:45;;;;;;;11.88;7.00;;;;;;;24.04;40.81;100746.28;8324940;28;20541;-64
2022/05/03 11:57:07;;;;;;;9.48;5.72;;;;;;;22.89;42.70;100746.28;8318457;28;20476;-65
2022/05/03 12:01:13;;;;;;;11.38;6.10;;;;;;;21.10;44.44;100739.91;8318087;28;20033;-65
2022/05/03 12:05:18;;;;;;;12.13;6.22;;;;;;;21.12;46.21;100732.31;8313096;28;20049;-65
2022/05/03 12:09:19;;;;;;;11.57;6.60;;;;;;;21.73;46.63;100728.56;8316886;28;20137;-65
2022/05/03 12:22:10;;;;;;;16.08;7.18;;;;;;;19.83;47.33;100721.91;8264407;27;20433;-65
2022/05/03 12:26:26;;;;;;;11.87;6.93;;;;;;;19.43;47.21;100710.50;8260701;28;20363;-65
2022/05/03 12:30:27;;;;;;;68.47;9.23;;;;;;;20.33;47.89;100719.03;8253163;28;20042;-64
2022/05/03 12:34:32;;;;;;;10.13;6.43;;;;;;;20.49;46.10;100713.28;8253500;28;20045;-62
2022/05/03 12:38:32;;;;;;;9.38;6.75;;;;;;;20.12;46.48;100708.03;8257653;28;20070;-62
2022/05/03 12:42:41;;;;;;;15.10;6.73;;;;;;;20.34;47.86;100707.03;8254426;28;20049;-62
2022/05/03 12:46:42;;;;;;;10.15;6.22;;;;;;;20.90;46.81;100700.44;8283034;28;20372;-62
2022/05/03 12:50:43;;;;;;;11.77;7.18;;;;;;;20.24;46.50;100703.75;8293127;28;20034;-62
2022/05/03 12:54:44;;;;;;;10.03;6.93;;;;;;;20.47;47.65;100698.88;8255896;28;20042;-62
2022/05/03 12:58:46;;;;;;;13.63;6.78;;;;;;;20.23;47.65;100696.56;8254995;28;20293;-63
2022/05/03 13:02:48;;;;;;;12.70;6.50;;;;;;;19.96;46.47;100695.47;8265653;28;20045;-62
2022/05/03 13:06:49;;;;;;;7.53;6.15;;;;;;;20.20;50.61;100696.97;8257708;28;20039;-62
2022/05/03 13:10:50;;;;;;;10.88;6.75;;;;;;;19.67;46.88;100683.75;8246908;28;20050;-62
2022/05/03 13:14:50;;;;;;;9.02;5.88;;;;;;;20.38;49.51;100673.47;8248383;28;20053;-62
2022/05/03 13:18:51;;;;;;;9.20;6.80;;;;;;;19.92;46.11;100671.34;8262380;28;20075;-62
2022/05/03 13:22:51;;;;;;;10.07;6.13;;;;;;;20.02;46.18;100674.59;8260654;28;20042;-62
2022/05/03 13:26:52;;;;;;;12.07;6.60;;;;;;;20.17;49.31;100659.78;8270349;28;20050;-61
2022/05/03 13:30:52;;;;;;;11.90;5.35;;;;;;;19.95;46.63;100665.47;8248367;28;20301;-61
2022/05/03 13:34:53;;;;;;;9.32;6.30;;;;;;;20.13;46.81;100657.63;8241063;28;20046;-61
2022/05/03 13:43:14;;;;;;;9.00;5.18;;;;;;;20.16;47.29;100646.25;8296196;28;20041;-60
2022/05/03 13:47:14;;;;;;;7.82;5.25;;;;;;;19.67;46.90;100650.84;8291335;28;20150;-62
2022/05/03 13:51:16;;;;;;;32.40;6.47;;;;;;;20.38;48.88;100651.50;8281915;28;20046;-62
2022/05/03 13:55:17;;;;;;;14.45;5.40;;;;;;;19.79;47.64;100646.53;8295881;28;20034;-61
2022/05/03 13:59:17;;;;;;;7.22;4.50;;;;;;;20.17;46.77;100656.19;8301322;28;20091;-62
2022/05/03 14:03:17;;;;;;;9.73;5.32;;;;;;;19.81;46.77;100648.03;8296493;28;20049;-62
2022/05/03 14:07:18;;;;;;;10.17;5.33;;;;;;;19.76;46.85;100660.66;8295483;28;20524;-62
2022/05/03 14:11:18;;;;;;;6.13;4.03;;;;;;;19.90;48.08;100648.72;8301196;28;20289;-62
2022/05/03 14:15:19;;;;;;;9.65;5.22;;;;;;;19.98;46.54;100649.47;8276058;28;20502;-62
2022/05/03 14:19:20;;;;;;;7.28;4.53;;;;;;;19.78;46.70;100647.56;8302107;28;20104;-62
2022/05/03 14:23:21;;;;;;;10.20;4.57;;;;;;;19.84;46.21;100646.78;8295059;28;20045;-62
2022/05/03 14:27:21;;;;;;;8.43;3.63;;;;;;;20.11;48.77;100637.72;8277164;28;20049;-62
2022/05/03 14:31:24;;;;;;;7.35;4.22;;;;;;;20.16;46.80;100635.28;8302436;28;20041;-62
2022/05/03 14:35:25;;;;;;;9.90;4.13;;;;;;;20.25;47.18;100634.91;8297276;28;20042;-62
2022/05/03 14:39:25;;;;;;;6.15;4.00;;;;;;;20.27;46.83;100642.94;8305412;28;20046;-62
2022/05/03 14:43:26;;;;;;;5.20;3.90;;;;;;;20.16;47.19;100635.28;8295031;28;20044;-62
2022/05/03 14:47:26;;;;;;;4.65;3.08;;;;;;;20.21;46.63;100638.25;8304029;28;20414;-63
2022/05/03 14:51:28;;;;;;;6.03;4.57;;;;;;;19.60;46.11;100631.56;8292830;28;20065;-62
2022/05/03 14:55:29;;;;;;;5.40;4.57;;;;;;;19.65;46.26;100630.97;8289218;28;20069;-62
2022/05/03 15:03:49;;;;;;;4.35;3.95;;;;;;;19.71;46.96;100628.31;8291680;28;20781;-62
2022/05/03 15:07:51;;;;;;;5.10;3.72;;;;;;;19.94;48.18;100630.84;8290973;28;20398;-63
2022/05/03 15:11:54;;;;;;;201.05;14.45;;;;;;;20.10;48.99;100616.81;8294084;28;20045;-63
2022/05/03 15:15:54;;;;;;;5.47;3.40;;;;;;;19.88;46.70;100626.97;8270606;28;20423;-63
2022/05/03 15:19:54;;;;;;;4.82;3.80;;;;;;;19.74;46.60;100621.56;8286718;28;20052;-63
2022/05/03 15:24:55;;;;;;;6.40;3.45;;;;;;;20.09;51.07;100617.84;8285253;28;20487;-63
2022/05/03 15:28:16;;;;;;;20.48;5.38;;;;;;;20.16;48.43;100613.31;8279119;28;20042;-62
2022/05/03 15:32:35;;;;;;;9.73;3.88;;;;;;;20.08;47.14;100621.66;8261533;28;20041;-61
2022/05/03 15:36:37;;;;;;;7.25;3.92;;;;;;;19.89;46.74;100616.84;8272487;28;20073;-62
2022/05/03 15:40:38;;;;;;;5.70;3.65;;;;;;;19.71;46.63;100613.72;8272073;28;21081;-62
2022/05/03 15:44:38;;;;;;;6.97;3.72;;;;;;;19.83;48.43;100617.66;8276241;28;20053;-62
2022/05/03 15:48:39;;;;;;;4.30;3.53;;;;;;;19.73;45.71;100612.47;8280180;28;20116;-62
2022/05/03 15:52:42;;;;;;;5.45;3.75;;;;;;;19.49;46.05;100605.50;8290018;28;20038;-62
2022/05/03 15:56:43;;;;;;;9.98;4.88;;;;;;;19.48;45.72;100613.09;8297155;28;20490;-62
2022/05/03 16:00:44;;;;;;;5.25;3.17;;;;;;;19.66;47.39;100610.72;8292431;28;20414;-62
2022/05/03 16:04:45;;;;;;;3.92;3.10;;;;;;;19.65;47.37;100612.63;8287937;28;20054;-61
2022/05/03 16:08:45;;;;;;;8.65;3.53;;;;;;;19.64;48.87;100607.34;8294492;28;20073;-62
2022/05/03 16:12:46;;;;;;;5.13;3.13;;;;;;;19.63;46.87;100609.22;8272900;28;20123;-62
2022/05/03 16:16:47;;;;;;;4.40;2.67;;;;;;;19.60;47.57;100611.53;8288414;28;20292;-61
2022/05/03 16:20:51;;;;;;;4.10;2.88;;;;;;;19.51;46.83;100609.97;8291520;28;20415;-61
2022/05/03 16:24:52;;;;;;;5.95;3.50;;;;;;;19.37;47.14;100606.25;8298595;28;20026;-62
2022/05/03 16:28:53;;;;;;;6.18;4.07;;;;;;;19.41;47.91;100605.66;8305933;28;20029;-62
2022/05/03 16:32:54;;;;;;;6.55;4.20;;;;;;;19.32;47.47;100598.59;8303248;28;20081;-62
2022/05/03 16:42:17;;;;;;;7.10;3.72;;;;;;;19.25;47.74;100594.88;8286324;28;20037;-62
2022/05/03 16:45:36;;;;;;;4.82;3.20;;;;;;;19.18;48.03;100595.84;8281015;28;20585;-61
2022/05/03 16:49:39;;;;;;;4.35;2.92;;;;;;;19.20;48.12;100594.63;8285496;28;20117;-62
2022/05/03 16:53:40;;;;;;;6.70;3.38;;;;;;;19.08;48.05;100592.56;8264584;28;20068;-62
2022/05/03 16:57:41;;;;;;;4.07;3.35;;;;;;;19.05;47.80;100602.03;8239250;28;20044;-62
2022/05/03 17:01:41;;;;;;;5.47;2.88;;;;;;;19.14;48.54;100589.91;8277069;28;20115;-61
2022/05/03 17:05:41;;;;;;;4.23;3.17;;;;;;;18.94;48.18;100593.47;8287738;28;20473;-61
2022/05/03 17:09:44;;;;;;;5.28;2.60;;;;;;;18.94;49.20;100593.47;8292751;28;20280;-62
2022/05/03 17:13:44;;;;;;;5.80;3.10;;;;;;;18.95;49.02;100590.56;8289338;28;20049;-62
2022/05/03 17:17:45;;;;;;;5.63;3.10;;;;;;;18.85;49.61;100592.72;8267574;28;20061;-62
2022/05/03 17:21:46;;;;;;;6.15;3.90;;;;;;;18.75;49.63;100594.06;8292348;28;20736;-62
2022/05/03 17:25:46;;;;;;;8.98;4.32;;;;;;;18.70;50.45;100594.63;8288800;28;20049;-62
2022/05/03 17:29:46;;;;;;;9.55;3.53;;;;;;;18.64;51.21;100592.69;8289064;28;20033;-62
2022/05/03 17:33:48;;;;;;;4.97;3.88;;;;;;;18.57;51.39;100596.38;8294633;28;20060;-62
2022/05/03 17:37:49;;;;;;;3.95;3.15;;;;;;;18.53;51.79;100595.03;8289636;28;20042;-62
2022/05/03 17:41:50;;;;;;;5.82;3.15;;;;;;;18.53;51.37;100598.63;8274604;28;20137;-62
2022/05/03 17:45:51;;;;;;;7.13;4.03;;;;;;;18.44;51.45;100602.50;8291246;28;20120;-62
2022/05/03 17:49:51;;;;;;;6.53;3.10;;;;;;;18.40;52.12;100617.63;8297513;28;20044;-62
2022/05/03 17:53:52;;;;;;;5.30;3.50;;;;;;;18.30;52.05;100617.00;8290923;28;20045;-61
2022/05/03 17:57:53;;;;;;;4.25;3.20;;;;;;;18.27;51.91;100611.88;8300909;28;20048;-62
2022/05/03 18:01:54;;;;;;;4.77;3.20;;;;;;;18.15;52.37;100620.78;8295293;28;20077;-62
2022/05/03 18:05:54;;;;;;;6.05;3.28;;;;;;;18.03;53.49;100620.38;8298645;28;20806;-62
2022/05/03 18:09:55;;;;;;;5.97;3.10;;;;;;;17.90;54.26;100614.66;8291991;28;20403;-61
2022/05/03 18:13:55;;;;;;;5.57;3.10;;;;;;;17.79;54.19;100617.88;8296491;28;20287;-62
2022/05/03 18:17:57;;;;;;;6.65;3.50;;;;;;;17.69;55.05;100625.47;8273159;28;20069;-61
2022/05/03 18:21:58;;;;;;;5.05;3.13;;;;;;;17.54;55.90;100624.56;8288839;28;20049;-62
2022/05/03 18:25:59;;;;;;;6.03;3.60;;;;;;;17.47;56.18;100629.03;8281045;28;20573;-61
2022/05/03 18:29:59;;;;;;;6.70;3.33;;;;;;;17.29;57.12;100631.19;8288908;28;20406;-61
2022/05/03 18:34:00;;;;;;;7.50;3.53;;;;;;;17.10;58.24;100626.19;8281290;28;20048;-61
2022/05/03 18:38:00;;;;;;;5.32;3.30;;;;;;;16.93;59.41;100635.53;8281662;28;20033;-62
2022/05/03 18:42:01;;;;;;;5.05;3.65;;;;;;;16.81;59.29;100636.94;8281111;28;20467;-61
2022/05/03 18:46:01;;;;;;;3.72;2.60;;;;;;;16.77;59.46;100646.53;8264238;28;20053;-61
2022/05/03 18:50:02;;;;;;;4.78;3.03;;;;;;;16.66;60.02;100638.72;8264578;28;20475;-61
2022/05/03 18:58:24;;;;;;;6.18;2.75;;;;;;;16.32;61.29;100651.75;8282938;28;20037;-61
2022/05/03 19:02:26;;;;;;;6.32;3.20;;;;;;;16.16;62.20;100647.16;8281944;28;20528;-61
2022/05/03 19:06:27;;;;;;;5.00;3.10;;;;;;;16.03;62.31;100662.34;8301961;28;20053;-61
2022/05/03 19:10:28;;;;;;;6.78;3.08;;;;;;;15.91;62.36;100666.44;8289895;28;20700;-61
2022/05/03 19:14:28;;;;;;;5.00;2.92;;;;;;;15.88;62.57;100664.06;8292457;28;20041;-61
2022/05/03 19:18:29;;;;;;;5.25;3.05;;;;;;;15.86;62.04;100667.00;8289420;28;20088;-63
2022/05/03 19:22:29;;;;;;;6.05;3.28;;;;;;;15.81;62.39;100674.81;8309535;28;20177;-61
2022/05/03 19:30:50;;;;;;;10.27;3.53;;;;;;;15.59;63.80;100680.94;8308564;28;20029;-61
2022/05/03 19:34:51;;;;;;;4.10;3.70;;;;;;;15.60;64.44;100683.50;8307015;28;20041;-61
2022/05/03 19:38:52;;;;;;;6.10;4.20;;;;;;;15.52;64.49;100688.94;8309528;28;20617;-61
2022/05/03 19:42:53;;;;;;;6.35;4.40;;;;;;;15.46;65.32;100692.31;8310156;28;20868;-61
2022/05/03 19:46:54;;;;;;;7.15;4.60;;;;;;;15.47;66.14;100688.56;8309709;28;20042;-61
2022/05/03 19:50:54;;;;;;;10.97;5.77;;;;;;;15.35;67.11;100698.09;8314075;28;20041;-61